Time;durP1;ratioP1;P1;durP2;ratioP2;P2;SDS_P1;SDS_P2;PMS_P1;PMS_P2;Temp;Humidity;BMP_temperature;BMP_pressure;BME280_temperature;BME280_humidity;BME280_pressure;Samples;Min_cycle;Max_cycle;Signal;HPM_P1;HPM_P2
2022/07/30 00:01:43;;;;;;;5.13;4.38;;;29.30;56.50;;;;;;5055058;28;20204;-76
2022/07/30 00:04:09;;;;;;;6.95;5.10;;;28.90;57.30;;;;;;5058281;28;20021;-75
2022/07/30 00:06:36;;;;;;;7.40;4.90;;;29.20;57.50;;;;;;5070419;28;20671;-76
2022/07/30 00:09:02;;;;;;;5.85;4.90;;;29.20;57.00;;;;;;5059176;28;20096;-76
2022/07/30 00:11:28;;;;;;;6.00;4.78;;;29.30;56.80;;;;;;5066664;28;20021;-75
2022/07/30 00:13:54;;;;;;;5.30;4.75;;;29.60;56.80;;;;;;5055771;28;20036;-91
2022/07/30 00:16:20;;;;;;;6.65;4.70;;;29.80;56.10;;;;;;5041066;28;20067;-79
2022/07/30 00:18:46;;;;;;;5.88;5.15;;;29.90;56.00;;;;;;5055598;28;20068;-76
2022/07/30 00:21:11;;;;;;;6.28;4.97;;;29.80;56.10;;;;;;5056823;28;20017;-75
2022/07/30 00:23:37;;;;;;;7.45;5.10;;;29.80;56.20;;;;;;5070312;28;20028;-78
2022/07/30 00:26:03;;;;;;;8.70;5.13;;;29.70;56.20;;;;;;5071358;28;20016;-75
2022/07/30 00:28:28;;;;;;;6.05;4.95;;;29.80;56.10;;;;;;5057500;28;20032;-75
2022/07/30 00:30:54;;;;;;;10.00;5.15;;;29.90;56.20;;;;;;5036351;28;20471;-76
2022/07/30 00:33:20;;;;;;;5.97;4.88;;;29.10;57.50;;;;;;5053453;28;20036;-81
2022/07/30 00:35:46;;;;;;;6.53;5.30;;;28.70;58.40;;;;;;5072617;28;20047;-79
2022/07/30 00:38:11;;;;;;;6.45;5.13;;;28.60;58.60;;;;;;5071235;28;20032;-75
2022/07/30 00:40:37;;;;;;;6.10;5.00;;;28.80;58.20;;;;;;5057304;28;20033;-76
2022/07/30 00:43:03;;;;;;;7.47;5.32;;;29.00;57.90;;;;;;5061994;28;20033;-75
2022/07/30 00:45:29;;;;;;;5.82;5.13;;;29.40;57.40;;;;;;5067505;28;20460;-75
2022/07/30 00:47:54;;;;;;;7.80;4.90;;;29.80;56.80;;;;;;5056059;28;20025;-75
2022/07/30 00:50:20;;;;;;;5.93;5.13;;;29.90;56.50;;;;;;5055460;28;20120;-75
2022/07/30 00:52:46;;;;;;;6.30;5.28;;;29.20;57.90;;;;;;5054251;28;20021;-76
2022/07/30 00:55:13;;;;;;;8.40;5.40;;;29.20;57.90;;;;;;5061502;28;20044;-75
2022/07/30 00:57:40;;;;;;;6.93;5.57;;;29.20;57.90;;;;;;5072925;28;20040;-76
2022/07/30 01:00:09;;;;;;;6.72;5.68;;;29.40;57.60;;;;;;5058212;28;20442;-77
2022/07/30 01:02:35;;;;;;;6.35;5.28;;;29.80;57.70;;;;;;5053658;28;20155;-75
2022/07/30 01:05:01;;;;;;;6.47;5.57;;;30.10;56.70;;;;;;5059982;28;20032;-76
2022/07/30 01:07:26;;;;;;;8.13;7.07;;;30.20;56.50;;;;;;5056580;28;20486;-79
2022/07/30 01:09:52;;;;;;;6.53;5.30;;;30.20;56.60;;;;;;5067950;28;20069;-76
2022/07/30 01:12:22;;;;;;;7.25;5.20;;;29.80;57.30;;;;;;5059127;28;20059;-75
2022/07/30 01:14:48;;;;;;;7.20;5.00;;;29.60;57.60;;;;;;5055354;28;20029;-85
2022/07/30 01:17:14;;;;;;;10.30;9.30;;;29.70;57.50;;;;;;5041944;28;20041;-81
2022/07/30 01:19:47;;;;;;;12.70;5.20;;;29.60;57.50;;;;;;5064800;28;20380;-77
2022/07/30 01:22:25;;;;;;;7.90;5.30;;;29.50;57.90;;;;;;5053950;28;20029;-76
2022/07/30 01:25:29;;;;;;;7.38;4.95;;;29.50;57.80;;;;;;5062491;28;20028;-81
2022/07/30 01:28:10;;;;;;;7.00;5.10;;;29.60;57.30;;;;;;5072375;28;20017;-76
2022/07/30 01:30:40;;;;;;;5.97;5.35;;;29.40;57.60;;;;;;5060407;28;20028;-76
2022/07/30 01:33:11;;;;;;;6.72;5.20;;;29.60;57.40;;;;;;5070685;28;20454;-76
2022/07/30 01:35:38;;;;;;;;;;;29.80;56.90;;;;;;5065619;28;20163;-75
2022/07/30 01:38:05;;;;;;;5.75;4.80;;;29.90;56.70;;;;;;5071897;28;19970;-79
2022/07/30 01:40:31;;;;;;;5.93;4.60;;;29.70;56.90;;;;;;5070103;28;20029;-77
2022/07/30 01:43:00;;;;;;;6.88;5.05;;;29.00;58.30;;;;;;5058465;28;20037;-75
2022/07/30 01:45:29;;;;;;;6.32;5.38;;;29.00;58.30;;;;;;5068620;28;20029;-75
2022/07/30 01:47:57;;;;;;;6.22;5.20;;;29.10;58.00;;;;;;5058275;28;20031;-77
2022/07/30 01:50:24;;;;;;;6.80;5.07;;;29.30;57.70;;;;;;5073138;28;20017;-75
2022/07/30 01:52:52;;;;;;;5.63;5.00;;;29.40;57.20;;;;;;5070708;28;20028;-76
2022/07/30 01:55:32;;;;;;;6.88;5.35;;;29.10;57.60;;;;;;5053300;28;20028;-75
2022/07/30 01:57:59;;;;;;;5.77;4.57;;;27.90;59.70;;;;;;5066249;28;20060;-79
2022/07/30 02:00:29;;;;;;;6.07;4.97;;;27.10;61.50;;;;;;5070619;28;20395;-75
2022/07/30 02:02:56;;;;;;;7.47;5.20;;;26.60;62.70;;;;;;5071276;28;20027;-75
2022/07/30 02:05:22;;;;;;;6.32;5.22;;;26.70;63.40;;;;;;5052713;28;20057;-75
2022/07/30 02:08:10;;;;;;;7.47;5.10;;;27.20;62.60;;;;;;5052488;28;20029;-75
2022/07/30 02:10:47;;;;;;;7.95;5.15;;;27.80;60.90;;;;;;5054644;28;20047;-75
2022/07/30 02:13:19;;;;;;;8.35;5.07;;;28.70;59.60;;;;;;5052944;28;20025;-76
2022/07/30 02:15:47;;;;;;;5.45;4.53;;;29.10;58.00;;;;;;5052866;28;20036;-77
2022/07/30 02:18:20;;;;;;;6.78;5.32;;;28.90;58.20;;;;;;5070640;28;20045;-76
2022/07/30 02:20:54;;;;;;;7.13;5.35;;;28.90;58.10;;;;;;5058826;28;20386;-75
2022/07/30 02:23:23;;;;;;;7.43;4.90;;;28.80;58.20;;;;;;5065239;28;20036;-75
2022/07/30 02:25:50;;;;;;;7.65;5.20;;;29.20;57.70;;;;;;5071169;28;20380;-77
2022/07/30 02:28:18;;;;;;;7.00;5.30;;;29.50;56.90;;;;;;5075363;28;20048;-78
2022/07/30 02:30:55;;;;;;;6.95;6.20;;;29.40;57.70;;;;;;5069730;28;20036;-85
2022/07/30 02:33:25;;;;;;;6.68;5.65;;;29.30;59.10;;;;;;5060197;28;20450;-76
2022/07/30 02:35:53;;;;;;;8.02;5.78;;;29.00;59.80;;;;;;5068706;28;20040;-76
2022/07/30 02:38:20;;;;;;;6.03;4.95;;;29.10;59.50;;;;;;5073242;28;20036;-76
2022/07/30 02:40:46;;;;;;;8.57;5.38;;;29.10;59.30;;;;;;5066544;28;20021;-79
2022/07/30 02:43:16;;;;;;;7.00;5.20;;;28.60;59.90;;;;;;5063895;28;20040;-76
2022/07/30 02:45:45;;;;;;;7.75;5.40;;;27.90;61.30;;;;;;5057723;28;20021;-76
2022/07/30 02:48:12;;;;;;;7.00;4.93;;;27.40;62.40;;;;;;5060330;28;20497;-78
2022/07/30 02:50:38;;;;;;;6.93;5.20;;;26.90;63.70;;;;;;5057653;28;20035;-77
2022/07/30 02:53:08;;;;;;;7.82;4.90;;;26.80;63.50;;;;;;5072385;28;20475;-77
2022/07/30 02:55:34;;;;;;;6.13;4.85;;;26.60;63.90;;;;;;5071960;28;20499;-76
2022/07/30 02:58:02;;;;;;;5.47;4.63;;;26.50;64.80;;;;;;5058802;28;20037;-77
2022/07/30 03:00:30;;;;;;;7.10;4.93;;;26.70;63.80;;;;;;5058537;28;20036;-77
2022/07/30 03:02:57;;;;;;;8.38;4.90;;;26.90;63.20;;;;;;5058575;28;20028;-76
2022/07/30 03:05:24;;;;;;;7.25;5.00;;;27.50;61.90;;;;;;5056942;28;20075;-76
2022/07/30 03:07:53;;;;;;;7.13;5.22;;;28.00;61.00;;;;;;5066990;28;20472;-79
2022/07/30 03:10:20;;;;;;;7.40;4.68;;;28.10;60.50;;;;;;5060112;28;20017;-82
2022/07/30 03:12:47;;;;;;;8.38;5.07;;;28.00;60.50;;;;;;5059648;28;20429;-80
2022/07/30 03:15:14;;;;;;;6.75;4.70;;;27.60;61.20;;;;;;5062661;28;20025;-77
2022/07/30 03:17:44;;;;;;;6.72;5.05;;;27.00;62.50;;;;;;5056623;28;20546;-77
2022/07/30 03:20:14;;;;;;;5.77;4.80;;;26.70;63.80;;;;;;5073599;28;20024;-76
2022/07/30 03:22:43;;;;;;;6.75;4.80;;;26.90;63.50;;;;;;5074220;28;20024;-76
2022/07/30 03:25:12;;;;;;;6.63;4.93;;;27.20;62.90;;;;;;5075188;28;20021;-82
2022/07/30 03:27:39;;;;;;;7.60;5.05;;;27.20;62.50;;;;;;5075333;28;20498;-79
2022/07/30 03:30:06;;;;;;;6.88;4.80;;;26.40;64.00;;;;;;5066107;28;20407;-76
2022/07/30 03:32:33;;;;;;;6.53;4.72;;;26.00;65.00;;;;;;5058714;28;20532;-81
2022/07/30 03:34:59;;;;;;;6.57;5.05;;;26.10;64.80;;;;;;5048452;28;20412;-75
2022/07/30 03:37:30;;;;;;;7.63;5.25;;;26.10;65.00;;;;;;5066118;28;20051;-76
2022/07/30 03:39:59;;;;;;;6.50;4.80;;;27.00;63.20;;;;;;5063517;28;20371;-84
2022/07/30 03:42:25;;;;;;;7.18;5.03;;;27.80;61.10;;;;;;5067520;28;20033;-82
2022/07/30 03:44:52;;;;;;;6.05;5.18;;;28.00;60.40;;;;;;5065661;28;20032;-77
2022/07/30 03:47:21;;;;;;;5.72;4.85;;;28.20;60.10;;;;;;5042774;28;20028;-76
2022/07/30 03:49:47;;;;;;;6.32;4.97;;;28.50;59.40;;;;;;5074546;28;20021;-76
2022/07/30 03:52:13;;;;;;;6.35;4.80;;;28.80;59.00;;;;;;5075191;28;20074;-75
2022/07/30 03:54:39;;;;;;;6.05;5.07;;;28.40;59.50;;;;;;5059818;28;20083;-75
2022/07/30 03:57:05;;;;;;;7.00;5.05;;;28.50;59.80;;;;;;5072252;28;20040;-75
2022/07/30 03:59:32;;;;;;;6.78;5.07;;;29.00;59.10;;;;;;5061863;28;20029;-75
2022/07/30 04:02:02;;;;;;;6.65;4.80;;;29.40;58.30;;;;;;5074181;28;20387;-75
2022/07/30 04:04:29;;;;;;;9.32;5.03;;;29.80;57.90;;;;;;5074334;28;20070;-77
2022/07/30 04:06:56;;;;;;;6.80;4.97;;;29.90;57.40;;;;;;5075411;28;20063;-77
2022/07/30 04:09:22;;;;;;;5.75;5.13;;;30.10;57.20;;;;;;5061814;28;20017;-88
2022/07/30 04:11:48;;;;;;;8.27;5.35;;;29.90;57.50;;;;;;5075080;28;20470;-79
2022/07/30 04:14:14;;;;;;;8.02;5.57;;;29.40;58.50;;;;;;5073663;28;20028;-75
2022/07/30 04:17:11;;;;;;;5.72;5.13;;;28.80;59.60;;;;;;5094682;28;20028;-76
2022/07/30 04:19:50;;;;;;;6.95;5.30;;;28.40;60.60;;;;;;5004030;28;20393;-82
2022/07/30 04:22:23;;;;;;;7.00;5.40;;;28.30;60.80;;;;;;4998989;28;20113;-80
2022/07/30 04:24:51;;;;;;;7.00;5.15;;;28.30;60.80;;;;;;5012786;28;20046;-78
2022/07/30 04:27:20;;;;;;;7.25;5.30;;;28.30;61.10;;;;;;5010111;28;20077;-80
2022/07/30 04:29:46;;;;;;;5.47;4.80;;;28.00;61.60;;;;;;4991261;28;20414;-77
2022/07/30 04:32:12;;;;;;;6.45;4.90;;;27.30;62.90;;;;;;4984070;28;20026;-76
2022/07/30 04:34:58;;;;;;;6.30;5.25;;;26.70;63.70;;;;;;4985575;28;20038;-76
2022/07/30 04:37:26;;;;;;;6.93;4.60;;;26.60;64.60;;;;;;4966428;28;20501;-75
2022/07/30 04:39:53;;;;;;;7.32;5.40;;;26.90;64.80;;;;;;4971304;28;20122;-78
2022/07/30 04:42:23;;;;;;;6.70;4.80;;;27.50;64.70;;;;;;4979114;28;20113;-79
2022/07/30 04:44:49;;;;;;;6.47;5.47;;;27.80;64.60;;;;;;4987816;28;20098;-79
2022/07/30 04:47:16;;;;;;;7.80;6.00;;;28.00;64.50;;;;;;4989803;28;20022;-78
2022/07/30 04:49:42;;;;;;;8.57;5.65;;;28.30;63.40;;;;;;4992511;28;20043;-79
2022/07/30 04:52:10;;;;;;;6.43;5.40;;;28.60;63.00;;;;;;4992868;28;20022;-77
2022/07/30 04:54:58;;;;;;;6.85;5.68;;;28.80;62.50;;;;;;4975796;28;20101;-79
2022/07/30 04:57:25;;;;;;;7.13;5.75;;;29.00;61.70;;;;;;5032948;28;20048;-77
2022/07/30 04:59:51;;;;;;;6.55;5.38;;;29.20;61.20;;;;;;5056218;28;20495;-79
2022/07/30 05:02:19;;;;;;;8.68;5.85;;;29.40;61.60;;;;;;5037621;28;20029;-81
2022/07/30 05:04:46;;;;;;;19.20;14.27;;;28.70;63.00;;;;;;5052946;28;20032;-79
2022/07/30 05:07:16;;;;;;;17.15;12.45;;;28.50;64.30;;;;;;5053116;28;20021;-80
2022/07/30 05:09:43;;;;;;;13.20;11.13;;;28.40;66.10;;;;;;5052773;28;20071;-77
2022/07/30 05:12:09;;;;;;;38.08;14.43;;;27.20;68.10;;;;;;5051949;28;20029;-80
2022/07/30 05:14:35;;;;;;;24.73;13.07;;;26.20;71.90;;;;;;5052312;28;20023;-82
2022/07/30 05:17:01;;;;;;;23.58;12.27;;;26.40;71.60;;;;;;5038227;28;20395;-91
2022/07/30 05:19:26;;;;;;;20.17;13.25;;;26.90;71.00;;;;;;5036592;28;20052;-79
2022/07/30 05:21:52;;;;;;;17.05;12.27;;;27.30;70.30;;;;;;5051028;28;20021;-79
2022/07/30 05:24:18;;;;;;;18.00;12.23;;;27.20;69.40;;;;;;5050852;28;20107;-81
2022/07/30 05:26:44;;;;;;;17.35;15.63;;;26.60;70.90;;;;;;5035468;28;20040;-80
2022/07/30 05:29:10;;;;;;;35.10;32.17;;;26.40;71.60;;;;;;5068742;28;20013;-81
2022/07/30 05:31:35;;;;;;;36.95;33.58;;;26.40;72.00;;;;;;5074017;28;20032;-86
2022/07/30 05:34:01;;;;;;;21.40;19.25;;;26.10;72.80;;;;;;5069704;28;20529;-86
2022/07/30 05:36:27;;;;;;;20.92;16.98;;;26.00;73.60;;;;;;5026229;28;20045;-86
2022/07/30 05:38:53;;;;;;;18.92;14.57;;;26.00;74.00;;;;;;5036089;28;20056;-78
2022/07/30 05:41:18;;;;;;;19.38;14.80;;;25.90;74.30;;;;;;5053748;28;20055;-79
2022/07/30 05:43:44;;;;;;;22.20;13.40;;;25.90;74.90;;;;;;5035828;28;20035;-79
2022/07/30 05:46:10;;;;;;;16.92;13.65;;;26.20;73.90;;;;;;5053447;28;20514;-78
2022/07/30 05:48:35;;;;;;;18.83;13.35;;;26.50;73.30;;;;;;5053155;28;20028;-83
2022/07/30 05:51:02;;;;;;;16.60;12.77;;;26.70;72.60;;;;;;5064730;28;20024;-83
2022/07/30 05:53:27;;;;;;;14.65;12.50;;;26.70;72.20;;;;;;5052549;28;20414;-89
2022/07/30 05:55:53;;;;;;;18.15;15.25;;;26.70;72.20;;;;;;5054413;28;20468;-89
2022/07/30 05:58:19;;;;;;;15.32;12.30;;;26.80;73.20;;;;;;5073622;28;20035;-86
2022/07/30 06:00:45;;;;;;;14.63;11.70;;;26.90;72.00;;;;;;5070598;28;20029;-84
2022/07/30 06:03:10;;;;;;;15.80;11.30;;;27.10;71.60;;;;;;5036179;28;20128;-90
2022/07/30 06:05:36;;;;;;;12.50;11.10;;;27.20;71.50;;;;;;5055223;28;20044;-86
2022/07/30 06:08:02;;;;;;;13.25;11.02;;;26.90;73.00;;;;;;5043947;28;20021;-89
2022/07/30 06:10:28;;;;;;;14.23;10.02;;;26.90;73.10;;;;;;5072699;28;20031;-86
2022/07/30 06:12:54;;;;;;;12.15;10.45;;;27.00;72.30;;;;;;5056617;28;20032;-84
2022/07/30 06:15:20;;;;;;;13.20;11.77;;;27.30;71.80;;;;;;5055611;28;20029;-85
2022/07/30 06:17:46;;;;;;;14.38;12.15;;;27.50;71.90;;;;;;5073698;28;20040;-85
2022/07/30 06:20:13;;;;;;;14.88;11.05;;;27.90;71.30;;;;;;5056432;28;20392;-81
2022/07/30 06:22:39;;;;;;;10.35;9.25;;;28.20;70.80;;;;;;5073852;28;20025;-87
2022/07/30 06:25:06;;;;;;;11.38;9.93;;;27.90;69.90;;;;;;5056770;28;20023;-88
2022/07/30 06:27:33;;;;;;;9.45;8.45;;;28.00;70.70;;;;;;5056934;28;20024;-88
2022/07/30 06:30:07;;;;;;;10.75;9.35;;;28.30;70.30;;;;;;5056731;28;20471;-87
2022/07/30 06:32:33;;;;;;;9.82;8.23;;;28.40;70.30;;;;;;5057873;28;20027;-89
2022/07/30 06:34:59;;;;;;;10.05;9.02;;;28.40;69.20;;;;;;5057259;28;20032;-85
2022/07/30 06:37:26;;;;;;;9.60;8.23;;;28.70;69.00;;;;;;5057246;28;20434;-89
2022/07/30 06:39:52;;;;;;;8.10;7.18;;;28.80;67.80;;;;;;5075790;28;20017;-87
2022/07/30 06:42:18;;;;;;;10.00;7.85;;;28.80;69.00;;;;;;5057962;28;20028;-87
2022/07/30 06:44:43;;;;;;;9.05;8.02;;;28.90;68.60;;;;;;5057150;28;20360;-89
2022/07/30 06:47:09;;;;;;;9.38;8.18;;;29.00;67.40;;;;;;5057442;28;20021;-89
2022/07/30 06:49:36;;;;;;;7.97;6.78;;;29.10;67.20;;;;;;5057668;28;20477;-88
2022/07/30 06:52:02;;;;;;;9.10;7.90;;;29.30;66.90;;;;;;5057103;28;20037;-87
2022/07/30 06:54:28;;;;;;;7.80;6.60;;;29.40;67.00;;;;;;5075174;28;20021;-91
2022/07/30 06:56:53;;;;;;;12.95;11.65;;;29.10;66.20;;;;;;5074501;28;20097;-95
2022/07/30 06:59:19;;;;;;;8.80;6.65;;;28.90;66.70;;;;;;5074643;28;20025;-89
2022/07/30 07:01:45;;;;;;;10.30;8.00;;;28.90;66.90;;;;;;5057659;28;20036;-87
2022/07/30 07:04:11;;;;;;;8.63;7.53;;;29.10;67.10;;;;;;5077783;28;20025;-88
2022/07/30 07:06:37;;;;;;;8.30;7.20;;;29.40;66.50;;;;;;5060640;28;20121;-87
2022/07/30 07:09:03;;;;;;;9.73;7.72;;;29.70;66.50;;;;;;5077990;28;20040;-85
2022/07/30 07:11:29;;;;;;;10.35;8.05;;;30.00;65.70;;;;;;5059614;28;20029;-87
2022/07/30 07:13:54;;;;;;;8.77;5.70;;;30.10;65.40;;;;;;5060012;28;20028;-86
2022/07/30 07:16:23;;;;;;;7.43;6.15;;;29.90;65.80;;;;;;5059884;28;20081;-87
2022/07/30 07:18:51;;;;;;;8.02;5.90;;;29.70;67.40;;;;;;5077802;28;20158;-86
2022/07/30 07:21:17;;;;;;;7.72;6.90;;;29.60;65.50;;;;;;5059473;28;20021;-90
2022/07/30 07:23:42;;;;;;;7.90;7.10;;;28.90;68.00;;;;;;5059903;28;20032;-88
2022/07/30 07:26:09;;;;;;;7.50;6.50;;;29.00;68.10;;;;;;5077433;28;20444;-88
2022/07/30 07:28:35;;;;;;;7.35;6.05;;;29.30;67.30;;;;;;5059910;28;20024;-90
2022/07/30 07:31:00;;;;;;;7.43;6.32;;;29.60;66.80;;;;;;5077225;28;20039;-88
2022/07/30 07:33:26;;;;;;;8.25;6.40;;;29.90;65.50;;;;;;5059195;28;20467;-79
2022/07/30 07:35:53;;;;;;;7.05;5.90;;;30.00;65.60;;;;;;5077649;28;20049;-90
2022/07/30 07:38:19;;;;;;;25.90;23.70;;;30.00;65.60;;;;;;5077627;28;20037;-90
2022/07/30 07:40:46;;;;;;;17.63;16.15;;;30.10;65.70;;;;;;5077574;28;20439;-87
2022/07/30 07:44:05;;;;;;;8.57;6.70;;;30.10;63.80;;;;;;5092337;27;20370;-83
2022/07/30 07:46:31;;;;;;;7.80;6.63;;;30.30;65.90;;;;;;5090947;28;20482;-83
2022/07/30 07:48:57;;;;;;;7.50;6.18;;;30.50;64.80;;;;;;5090219;28;20494;-80
2022/07/30 07:51:22;;;;;;;8.43;6.88;;;30.70;64.50;;;;;;5089884;28;20024;-80
2022/07/30 07:53:48;;;;;;;8.35;6.93;;;30.70;64.60;;;;;;5090912;28;20040;-80
2022/07/30 07:56:14;;;;;;;8.05;5.45;;;30.50;64.10;;;;;;5090144;28;20031;-81
2022/07/30 07:58:40;;;;;;;7.47;6.68;;;30.40;63.90;;;;;;5091059;28;20437;-82
2022/07/30 08:01:05;;;;;;;7.50;6.38;;;30.20;63.90;;;;;;5090036;28;20414;-81
2022/07/30 08:03:31;;;;;;;8.07;6.80;;;30.10;66.30;;;;;;5089914;28;20036;-81
2022/07/30 08:05:57;;;;;;;10.43;9.20;;;29.60;68.30;;;;;;5090786;28;20095;-79
2022/07/30 08:08:23;;;;;;;8.98;7.32;;;29.40;69.10;;;;;;5091584;28;20040;-80
2022/07/30 08:10:49;;;;;;;9.52;8.52;;;29.40;69.80;;;;;;5091185;28;20060;-80
2022/07/30 08:13:15;;;;;;;9.43;8.43;;;29.30;70.60;;;;;;5089515;28;20021;-82
2022/07/30 08:15:41;;;;;;;9.60;8.65;;;29.60;70.10;;;;;;5090050;28;20032;-81
2022/07/30 08:18:07;;;;;;;8.73;7.63;;;29.80;69.30;;;;;;5091090;28;20471;-86
2022/07/30 08:20:34;;;;;;;8.73;7.22;;;30.10;68.60;;;;;;5091116;28;20503;-89
2022/07/30 08:23:00;;;;;;;9.88;7.63;;;30.30;67.40;;;;;;5091906;28;20495;-89
2022/07/30 08:25:27;;;;;;;10.60;8.45;;;30.00;67.70;;;;;;5091810;28;20024;-89
2022/07/30 08:27:53;;;;;;;8.57;7.30;;;30.10;67.60;;;;;;5073976;28;20028;-90
2022/07/30 08:30:19;;;;;;;7.63;6.82;;;30.50;66.50;;;;;;5091883;28;20036;-85
2022/07/30 08:32:44;;;;;;;8.55;7.10;;;30.70;65.60;;;;;;5091662;28;20107;-90
2022/07/30 08:35:10;;;;;;;8.90;7.43;;;30.70;65.40;;;;;;5091982;28;20028;-90
2022/07/30 08:37:36;;;;;;;7.88;7.07;;;30.70;65.10;;;;;;5090657;28;20032;-82
2022/07/30 08:40:03;;;;;;;10.70;8.10;;;30.40;65.80;;;;;;5091569;28;20031;-84
2022/07/30 08:42:34;;;;;;;9.85;7.93;;;30.00;67.00;;;;;;5090074;28;20048;-84
2022/07/30 08:45:00;;;;;;;13.90;7.70;;;29.80;68.20;;;;;;5091171;28;20025;-83
2022/07/30 08:47:32;;;;;;;8.85;7.70;;;29.90;66.60;;;;;;5091061;28;20079;-85
2022/07/30 08:50:05;;;;;;;11.73;7.78;;;30.10;66.00;;;;;;4736785;27;10000366;-87
2022/07/30 08:52:34;;;;;;;10.63;8.45;;;30.20;65.60;;;;;;5070084;28;20024;-85
2022/07/30 08:55:00;;;;;;;9.23;8.15;;;30.40;66.10;;;;;;5059353;28;20387;-87
2022/07/30 08:57:30;;;;;;;10.88;8.32;;;30.50;66.40;;;;;;5056799;28;20033;-85
2022/07/30 08:59:59;;;;;;;8.90;8.00;;;30.60;66.10;;;;;;5057221;28;20024;-88
2022/07/30 09:02:25;;;;;;;9.98;8.40;;;30.70;66.70;;;;;;5056585;28;20029;-78
2022/07/30 09:04:52;;;;;;;10.48;9.40;;;30.60;66.20;;;;;;5055295;28;20021;-88
2022/07/30 09:07:17;;;;;;;12.98;9.88;;;30.60;66.60;;;;;;5054229;28;20033;-81
2022/07/30 09:09:43;;;;;;;11.43;9.57;;;30.70;67.00;;;;;;5054694;28;20033;-83
2022/07/30 09:12:31;;;;;;;10.65;9.05;;;31.00;66.20;;;;;;5052950;28;20047;-79
2022/07/30 09:15:19;;;;;;;12.10;8.80;;;31.20;65.60;;;;;;5053148;28;20064;-80
2022/07/30 09:17:55;;;;;;;9.88;8.70;;;31.10;66.40;;;;;;5051369;28;20021;-80
2022/07/30 09:20:24;;;;;;;8.40;7.55;;;31.10;66.00;;;;;;5052372;28;20021;-77
2022/07/30 09:22:53;;;;;;;11.30;7.97;;;31.30;65.80;;;;;;5050859;28;20045;-80
2022/07/30 09:25:33;;;;;;;9.80;7.20;;;31.00;66.20;;;;;;5050884;28;20021;-78
2022/07/30 09:27:59;;;;;;;10.20;9.00;;;31.00;64.90;;;;;;5050448;28;20071;-81
2022/07/30 09:30:28;;;;;;;10.07;9.07;;;31.00;64.90;;;;;;5051845;28;20033;-78
2022/07/30 09:32:56;;;;;;;11.65;9.88;;;30.90;66.10;;;;;;5050942;28;20479;-81
2022/07/30 09:35:22;;;;;;;9.98;8.98;;;31.20;66.00;;;;;;5050476;28;20025;-80
2022/07/30 09:38:00;;;;;;;9.65;8.65;;;31.40;65.40;;;;;;5051303;28;20029;-79
2022/07/30 09:40:27;;;;;;;11.10;9.95;;;31.40;64.70;;;;;;5050104;28;20052;-77
2022/07/30 09:43:06;;;;;;;11.15;9.77;;;30.80;64.70;;;;;;5050413;28;20183;-79
2022/07/30 09:45:32;;;;;;;10.60;9.50;;;30.10;66.00;;;;;;5051911;28;20082;-77
2022/07/30 09:47:58;;;;;;;11.70;10.43;;;29.80;66.90;;;;;;5053695;28;20103;-78
2022/07/30 09:50:25;;;;;;;11.50;9.80;;;29.30;67.50;;;;;;5062270;28;20107;-82
2022/07/30 09:52:52;;;;;;;12.73;10.75;;;29.30;68.20;;;;;;5092560;28;20032;-78
2022/07/30 09:55:32;;;;;;;11.30;9.30;;;29.40;68.00;;;;;;5090689;28;20032;-79
2022/07/30 09:58:05;;;;;;;10.95;9.05;;;29.50;67.60;;;;;;5090659;28;20483;-80
2022/07/30 10:00:34;;;;;;;41.08;37.92;;;29.40;67.40;;;;;;5091784;28;20057;-76
2022/07/30 10:03:02;;;;;;;11.77;10.57;;;29.30;67.80;;;;;;5091216;28;20495;-81
2022/07/30 10:05:28;;;;;;;10.75;9.65;;;29.10;68.50;;;;;;5090201;28;20545;-80
2022/07/30 10:07:59;;;;;;;11.77;10.55;;;29.10;68.50;;;;;;5092332;28;20054;-79
2022/07/30 10:10:30;;;;;;;9.88;8.82;;;29.00;69.10;;;;;;5093078;28;20031;-80
2022/07/30 10:13:01;;;;;;;11.02;9.93;;;29.20;68.70;;;;;;5094076;28;20107;-81
2022/07/30 10:15:32;;;;;;;11.25;10.05;;;29.20;68.40;;;;;;5093114;28;20028;-79
2022/07/30 10:17:59;;;;;;;13.52;9.65;;;29.10;69.00;;;;;;5095321;28;20417;-79
2022/07/30 10:20:27;;;;;;;13.35;9.82;;;29.10;68.50;;;;;;5095062;28;20405;-82
2022/07/30 10:22:53;;;;;;;18.45;13.68;;;28.80;69.70;;;;;;4730334;28;10000443;-78
2022/07/30 10:25:21;;;;;;;15.88;11.85;;;28.70;69.70;;;;;;5070143;28;20028;-80
2022/07/30 10:27:47;;;;;;;16.80;13.27;;;28.70;70.50;;;;;;5071300;28;20123;-82
2022/07/30 10:30:14;;;;;;;19.35;12.68;;;28.70;70.10;;;;;;5071492;28;20071;-80
2022/07/30 10:32:40;;;;;;;17.98;12.88;;;28.70;70.00;;;;;;5073574;28;20458;-86
2022/07/30 10:35:07;;;;;;;19.15;13.32;;;28.70;69.50;;;;;;5074012;28;20054;-91
2022/07/30 10:37:40;;;;;;;11.20;9.40;;;28.70;69.30;;;;;;5075570;28;20055;-83
2022/07/30 10:40:33;;;;;;;14.90;11.30;;;28.70;69.60;;;;;;5075945;28;20048;-91
2022/07/30 10:43:22;;;;;;;28.85;26.30;;;28.40;70.70;;;;;;5073481;28;20052;-90
2022/07/30 10:46:18;;;;;;;15.82;13.88;;;27.90;72.00;;;;;;5074300;28;20024;-85
2022/07/30 10:48:44;;;;;;;16.55;14.88;;;27.80;72.70;;;;;;5075274;28;20054;-87
2022/07/30 10:51:11;;;;;;;12.75;10.80;;;28.10;71.80;;;;;;5074933;28;20025;-85
2022/07/30 10:53:40;;;;;;;11.88;9.57;;;28.30;71.50;;;;;;5063224;28;20020;-84
2022/07/30 10:56:22;;;;;;;9.25;8.25;;;28.20;70.90;;;;;;5058819;28;20084;-92
2022/07/30 10:59:07;;;;;;;8.75;7.60;;;28.30;70.80;;;;;;5060691;28;20025;-92
2022/07/30 11:01:48;;;;;;;9.85;8.45;;;28.30;70.40;;;;;;5052475;28;20081;-93
2022/07/30 11:04:27;;;;;;;10.70;9.27;;;28.20;70.60;;;;;;5072104;28;20032;-94
2022/07/30 11:07:21;;;;;;;10.30;7.23;;;28.40;70.40;;;;;;5084011;28;20021;-88
2022/07/30 11:09:48;;;;;;;11.85;9.35;;;28.50;70.50;;;;;;5054501;28;20312;-92
2022/07/30 11:12:14;;;;;;;8.98;8.07;;;28.40;71.00;;;;;;5053048;28;20108;-86
2022/07/30 11:14:45;;;;;;;9.77;8.40;;;28.50;70.70;;;;;;5059250;28;20485;-88
2022/07/30 11:17:18;;;;;;;10.25;9.00;;;28.60;71.10;;;;;;5060114;28;20115;-79
2022/07/30 11:20:08;;;;;;;11.93;9.27;;;28.50;70.90;;;;;;5052895;28;20384;-87
2022/07/30 11:22:39;;;;;;;9.02;8.13;;;28.60;70.80;;;;;;5073230;28;20567;-76
2022/07/30 11:25:07;;;;;;;8.65;7.75;;;28.70;70.00;;;;;;5072475;28;20070;-84
2022/07/30 11:27:37;;;;;;;9.75;7.95;;;28.80;69.60;;;;;;5072539;28;20039;-89
2022/07/30 11:30:24;;;;;;;10.18;8.50;;;28.90;69.50;;;;;;5072190;28;20078;-87
2022/07/30 11:32:52;;;;;;;10.15;6.68;;;28.80;70.00;;;;;;5073055;28;20035;-90
2022/07/30 11:35:24;;;;;;;11.23;7.30;;;29.00;69.70;;;;;;5059648;28;20458;-84
2022/07/30 11:38:05;;;;;;;8.52;7.47;;;29.10;69.20;;;;;;5051250;28;20738;-88
2022/07/30 11:40:38;;;;;;;10.05;8.82;;;29.10;69.60;;;;;;5055215;28;20379;-84
2022/07/30 11:43:24;;;;;;;9.35;7.85;;;29.10;70.00;;;;;;5072664;28;20076;-82
2022/07/30 11:46:06;;;;;;;9.30;7.43;;;29.10;70.20;;;;;;5066562;28;20473;-81
2022/07/30 11:48:33;;;;;;;10.38;7.30;;;29.20;71.20;;;;;;5056959;28;20380;-80
2022/07/30 11:50:58;;;;;;;8.75;7.85;;;29.30;70.60;;;;;;5049872;28;20043;-79
2022/07/30 11:53:24;;;;;;;10.32;7.07;;;29.50;70.50;;;;;;5051602;28;20115;-80
2022/07/30 11:55:53;;;;;;;8.90;6.50;;;29.60;70.00;;;;;;5050721;28;20029;-80
2022/07/30 11:58:23;;;;;;;10.20;6.93;;;29.70;69.50;;;;;;5050227;28;20459;-81
2022/07/30 12:00:49;;;;;;;;;;;29.70;69.40;;;;;;5050787;28;20029;-77
2022/07/30 12:03:17;;;;;;;7.60;6.43;;;29.90;69.40;;;;;;5057939;28;19966;-81
2022/07/30 12:05:43;;;;;;;6.95;6.03;;;29.70;69.90;;;;;;5048240;28;20037;-78
2022/07/30 12:08:10;;;;;;;6.90;5.93;;;29.60;70.40;;;;;;5061601;28;20032;-79
2022/07/30 12:10:40;;;;;;;8.15;6.25;;;29.60;70.60;;;;;;5065630;28;20021;-78
2022/07/30 12:13:15;;;;;;;6.93;5.37;;;29.80;69.00;;;;;;5062866;28;20086;-78
2022/07/30 12:15:43;;;;;;;5.90;4.70;;;29.90;68.70;;;;;;5048357;28;20387;-75
2022/07/30 12:18:12;;;;;;;6.60;5.93;;;29.50;69.70;;;;;;5048208;28;20040;-77
2022/07/30 12:20:38;;;;;;;6.78;5.82;;;29.30;70.60;;;;;;5049418;28;20028;-77
2022/07/30 12:23:14;;;;;;;7.30;6.03;;;29.60;70.70;;;;;;5059820;28;20044;-75
2022/07/30 12:25:41;;;;;;;6.85;5.82;;;29.90;70.50;;;;;;5074130;28;20029;-75
2022/07/30 12:28:09;;;;;;;5.38;4.65;;;30.10;69.90;;;;;;5067698;28;20024;-76
2022/07/30 12:30:39;;;;;;;5.57;4.90;;;30.10;68.90;;;;;;5054778;28;20021;-77
2022/07/30 12:33:08;;;;;;;5.28;4.22;;;30.30;69.60;;;;;;5051648;28;20445;-75
2022/07/30 12:35:49;;;;;;;7.93;3.80;;;30.00;70.70;;;;;;5051972;28;20075;-76
2022/07/30 12:38:16;;;;;;;5.57;4.00;;;30.10;69.30;;;;;;5057778;28;20025;-77
2022/07/30 12:40:55;;;;;;;4.95;3.97;;;30.30;68.60;;;;;;5059264;28;20510;-75
2022/07/30 12:43:43;;;;;;;5.00;4.07;;;30.50;69.30;;;;;;5051386;28;20049;-78
2022/07/30 12:46:10;;;;;;;4.13;2.75;;;30.30;69.50;;;;;;5066860;28;20039;-76
2022/07/30 12:48:36;;;;;;;3.72;2.58;;;30.30;68.50;;;;;;5065725;28;20018;-78
2022/07/30 12:51:07;;;;;;;4.20;2.47;;;30.20;69.60;;;;;;5055124;28;20036;-83
2022/07/30 12:53:33;;;;;;;3.35;2.40;;;30.40;68.00;;;;;;5054761;28;20017;-86